createdAt,value
2022-10-08T00:01:02.608Z,13.30
2022-10-08T00:03:31.045Z,13.63
2022-10-08T00:06:02.174Z,13.27
2022-10-08T00:08:29.904Z,13.40
2022-10-08T00:10:57.955Z,12.10
2022-10-08T00:13:25.614Z,13.17
2022-10-08T00:15:53.405Z,11.90
2022-10-08T00:18:20.961Z,13.60
2022-10-08T00:20:47.862Z,13.60
2022-10-08T00:23:14.935Z,13.90
2022-10-08T00:25:42.610Z,12.83
2022-10-08T00:28:10.479Z,12.83
2022-10-08T00:30:38.271Z,12.40
2022-10-08T00:33:05.102Z,12.93
2022-10-08T00:35:36.601Z,12.73
2022-10-08T00:38:03.474Z,13.90
2022-10-08T00:40:30.275Z,12.40
2022-10-08T00:42:59.540Z,13.70
2022-10-08T00:45:26.363Z,12.47
2022-10-08T00:47:56.436Z,12.90
2022-10-08T00:50:30.919Z,13.60
2022-10-08T00:52:59.359Z,12.77
2022-10-08T00:55:29.390Z,12.27
2022-10-08T00:58:01.797Z,12.37
2022-10-08T01:00:29.376Z,12.87
2022-10-08T01:02:56.369Z,12.03
2022-10-08T01:05:41.888Z,11.70
2022-10-08T01:08:28.998Z,13.37
2022-10-08T01:11:04.816Z,11.07
2022-10-08T01:13:31.725Z,12.37
2022-10-08T01:16:21.762Z,12.40
2022-10-08T01:19:02.356Z,12.07
2022-10-08T01:21:47.713Z,12.80
2022-10-08T01:24:53.173Z,11.83
2022-10-08T01:27:26.007Z,12.40
2022-10-08T01:29:53.388Z,11.50
2022-10-08T01:32:22.489Z,11.07
2022-10-08T01:34:49.299Z,11.10
2022-10-08T01:37:25.181Z,10.90
2022-10-08T01:39:53.707Z,11.40
2022-10-08T01:42:23.531Z,11.23
2022-10-08T01:44:52.763Z,10.33
2022-10-08T01:47:21.643Z,10.40
2022-10-08T01:50:03.387Z,10.83
2022-10-08T01:52:32.657Z,10.57
2022-10-08T01:55:02.066Z,11.07
2022-10-08T01:57:29.430Z,11.13
2022-10-08T02:00:02.177Z,11.40
2022-10-08T02:02:39.253Z,9.87
2022-10-08T02:05:06.676Z,11.17
2022-10-08T02:07:36.086Z,11.17
2022-10-08T02:10:05.844Z,11.43
2022-10-08T02:12:32.975Z,9.87
2022-10-08T02:15:00.183Z,10.53
2022-10-08T02:17:45.127Z,11.07
2022-10-08T02:20:18.593Z,11.97
2022-10-08T02:22:51.770Z,10.97
2022-10-08T02:25:33.605Z,10.97
2022-10-08T02:28:00.918Z,11.10
2022-10-08T02:30:31.092Z,12.37
2022-10-08T02:33:03.440Z,10.47
2022-10-08T02:35:33.193Z,10.50
2022-10-08T02:38:01.521Z,10.83
2022-10-08T02:40:30.614Z,10.60
2022-10-08T02:43:00.257Z,11.23
2022-10-08T02:45:31.884Z,10.47
2022-10-08T02:48:05.726Z,11.07
2022-10-08T02:50:33.280Z,10.83
2022-10-08T02:53:00.370Z,11.13
2022-10-08T02:55:33.583Z,11.37
2022-10-08T02:58:03.217Z,10.00
2022-10-08T03:00:34.958Z,11.57
2022-10-08T03:03:15.822Z,11.53
2022-10-08T03:05:43.029Z,11.30
2022-10-08T03:08:12.429Z,11.43
2022-10-08T03:10:40.433Z,11.67
2022-10-08T03:13:07.777Z,11.90
2022-10-08T03:15:35.458Z,10.73
2022-10-08T03:18:04.063Z,11.03
2022-10-08T03:20:31.171Z,10.50
2022-10-08T03:23:01.957Z,11.50
2022-10-08T03:25:28.877Z,10.27
2022-10-08T03:27:55.678Z,12.40
2022-10-08T03:30:22.593Z,10.67
2022-10-08T03:32:49.685Z,10.93
2022-10-08T03:35:16.651Z,11.13
2022-10-08T03:37:43.705Z,11.40
2022-10-08T03:40:10.871Z,11.77
2022-10-08T03:42:38.187Z,10.53
2022-10-08T03:45:05.661Z,11.90
2022-10-08T03:47:32.555Z,11.17
2022-10-08T03:49:59.363Z,10.27
2022-10-08T03:52:26.299Z,10.73
2022-10-08T03:54:53.753Z,10.13
2022-10-08T03:57:20.539Z,12.73
2022-10-08T03:59:47.490Z,10.83
2022-10-08T04:02:14.450Z,11.13
2022-10-08T04:04:41.246Z,11.03
2022-10-08T04:07:08.181Z,10.83
2022-10-08T04:09:34.955Z,11.33
2022-10-08T04:12:01.762Z,11.43
2022-10-08T04:14:28.634Z,10.73
2022-10-08T04:16:55.636Z,11.63
2022-10-08T04:19:22.381Z,11.37
2022-10-08T04:21:49.331Z,12.33
2022-10-08T04:24:16.079Z,10.23
2022-10-08T04:26:42.931Z,11.50
2022-10-08T04:29:12.699Z,11.23
2022-10-08T04:31:40.490Z,11.57
2022-10-08T04:34:07.246Z,11.20
2022-10-08T04:36:34.458Z,12.57
2022-10-08T04:39:01.207Z,10.80
2022-10-08T04:41:28.027Z,11.83
2022-10-08T04:43:58.252Z,11.10
2022-10-08T04:46:25.129Z,11.80
2022-10-08T04:48:53.051Z,11.63
2022-10-08T04:51:20.603Z,11.77
2022-10-08T04:53:47.765Z,11.40
2022-10-08T04:56:17.152Z,11.00
2022-10-08T04:58:44.231Z,9.50
2022-10-08T05:01:12.275Z,11.50
2022-10-08T05:03:39.937Z,11.13
2022-10-08T05:06:07.467Z,10.53
2022-10-08T05:08:34.568Z,9.67
2022-10-08T05:11:01.373Z,9.77
2022-10-08T05:13:28.448Z,9.53
2022-10-08T05:15:55.747Z,10.20
2022-10-08T05:18:23.125Z,9.77
2022-10-08T05:20:50.114Z,10.23
2022-10-08T05:23:16.946Z,9.90
2022-10-08T05:25:43.975Z,9.70
2022-10-08T05:28:10.782Z,9.93
2022-10-08T05:30:37.796Z,9.70
2022-10-08T05:33:04.603Z,10.07
2022-10-08T05:35:31.500Z,8.60
2022-10-08T05:37:58.382Z,9.07
2022-10-08T05:40:25.274Z,8.83
2022-10-08T05:42:52.671Z,9.30
2022-10-08T05:45:19.567Z,10.70
2022-10-08T05:47:47.393Z,8.10
2022-10-08T05:50:14.644Z,8.53
2022-10-08T05:52:41.695Z,7.60
2022-10-08T05:55:08.740Z,7.90
2022-10-08T05:57:35.584Z,7.93
2022-10-08T06:00:02.401Z,6.73
2022-10-08T06:02:38.417Z,7.80
2022-10-08T06:05:05.638Z,10.33
2022-10-08T06:07:32.474Z,8.20
2022-10-08T06:09:59.404Z,7.67
2022-10-08T06:12:26.149Z,7.90
2022-10-08T06:14:53.009Z,7.27
2022-10-08T06:17:19.800Z,7.03
2022-10-08T06:19:46.567Z,7.47
2022-10-08T06:22:13.502Z,7.10
2022-10-08T06:24:40.264Z,7.57
2022-10-08T06:27:07.155Z,6.60
2022-10-08T06:29:33.982Z,7.63
2022-10-08T06:32:00.815Z,6.60
2022-10-08T06:34:27.612Z,7.77
2022-10-08T06:36:54.455Z,5.67
2022-10-08T06:39:21.254Z,7.80
2022-10-08T06:41:48.237Z,7.27
2022-10-08T06:44:15.682Z,7.10
2022-10-08T06:46:42.860Z,7.17
2022-10-08T06:49:10.356Z,4.33
2022-10-08T06:51:37.236Z,6.60
2022-10-08T06:54:07.896Z,7.03
2022-10-08T06:56:36.390Z,7.47
2022-10-08T06:59:03.767Z,7.40
2022-10-08T07:01:33.795Z,6.50
2022-10-08T07:04:01.929Z,6.23
2022-10-08T07:06:28.994Z,8.43
2022-10-08T07:08:57.065Z,6.80
2022-10-08T07:11:24.334Z,7.27
2022-10-08T07:13:51.272Z,4.77
2022-10-08T07:16:21.124Z,6.77
2022-10-08T07:18:49.478Z,6.27
2022-10-08T07:21:17.022Z,7.20
2022-10-08T07:23:43.909Z,6.63
2022-10-08T07:26:12.500Z,6.60
2022-10-08T07:28:41.253Z,6.80
2022-10-08T07:31:11.835Z,5.50
2022-10-08T07:33:40.910Z,6.77
2022-10-08T07:36:08.918Z,7.97
2022-10-08T07:38:35.738Z,7.20
2022-10-08T07:41:02.632Z,6.90
2022-10-08T07:43:29.489Z,7.67
2022-10-08T07:45:56.599Z,7.73
2022-10-08T07:48:23.478Z,7.53
2022-10-08T07:50:50.379Z,7.77
2022-10-08T07:53:17.259Z,7.07
2022-10-08T07:55:44.420Z,7.47
2022-10-08T07:58:11.272Z,7.27
2022-10-08T08:00:38.953Z,6.57
2022-10-08T08:03:05.856Z,7.73
2022-10-08T08:05:35.717Z,7.00
2022-10-08T08:08:02.550Z,3.83
2022-10-08T08:10:29.309Z,6.80
2022-10-08T08:12:56.329Z,3.23
2022-10-08T08:15:26.084Z,5.83
2022-10-08T08:17:52.918Z,6.93
2022-10-08T08:20:19.778Z,8.13
2022-10-08T08:22:46.720Z,7.30
2022-10-08T08:25:13.833Z,6.93
2022-10-08T08:27:40.697Z,7.13
2022-10-08T08:30:07.816Z,7.70
2022-10-08T08:32:36.003Z,8.40
2022-10-08T08:35:02.839Z,8.80
2022-10-08T08:37:29.602Z,6.77
2022-10-08T08:39:56.447Z,3.90
2022-10-08T08:42:23.238Z,12.57
2022-10-08T08:44:56.318Z,10.17
2022-10-08T08:47:26.332Z,7.20
2022-10-08T08:50:04.506Z,10.03
2022-10-08T08:52:34.625Z,9.90
2022-10-08T08:55:01.648Z,10.07
2022-10-08T08:57:34.763Z,8.33
2022-10-08T09:00:15.058Z,10.70
2022-10-08T09:03:02.986Z,10.83
2022-10-08T09:05:31.859Z,11.17
2022-10-08T09:08:01.500Z,11.90
2022-10-08T09:10:48.632Z,11.43
2022-10-08T09:13:21.337Z,11.47
2022-10-08T09:15:48.304Z,10.87
2022-10-08T09:18:16.824Z,13.50
2022-10-08T09:20:44.185Z,9.97
2022-10-08T09:23:16.262Z,12.50
2022-10-08T09:25:44.370Z,9.63
2022-10-08T09:28:11.166Z,11.73
2022-10-08T09:30:42.297Z,10.80
2022-10-08T09:33:18.826Z,9.23
2022-10-08T09:35:49.552Z,12.40
2022-10-08T09:38:23.361Z,13.03
2022-10-08T09:41:29.024Z,12.47
2022-10-08T09:44:16.988Z,10.37
2022-10-08T09:46:44.606Z,13.07
2022-10-08T09:49:23.612Z,11.07
2022-10-08T09:51:50.726Z,12.90
2022-10-08T09:54:21.806Z,11.80
2022-10-08T09:56:53.546Z,12.90
2022-10-08T09:59:21.759Z,10.67
2022-10-08T10:01:48.794Z,13.23
2022-10-08T10:04:19.661Z,10.77
2022-10-08T10:06:48.460Z,13.83
2022-10-08T10:09:27.371Z,10.83
2022-10-08T10:11:57.388Z,12.00
2022-10-08T10:14:52.158Z,11.43
2022-10-08T10:17:27.851Z,14.43
2022-10-08T10:19:57.297Z,16.90
2022-10-08T10:22:26.927Z,14.77
2022-10-08T10:24:57.175Z,14.87
2022-10-08T10:27:28.234Z,15.47
2022-10-08T10:30:04.394Z,14.20
2022-10-08T10:32:35.028Z,15.23
2022-10-08T10:35:13.128Z,12.90
2022-10-08T10:37:44.980Z,14.03
2022-10-08T10:40:23.415Z,16.00
2022-10-08T10:42:57.998Z,13.37
2022-10-08T10:45:26.609Z,13.77
2022-10-08T10:47:54.085Z,14.70
2022-10-08T10:50:25.960Z,13.20
2022-10-08T10:53:05.672Z,11.30
2022-10-08T10:55:38.907Z,13.97
2022-10-08T10:58:08.586Z,12.93
2022-10-08T11:00:54.200Z,13.43
2022-10-08T11:03:24.271Z,14.03
2022-10-08T11:05:56.612Z,7.83
2022-10-08T11:08:25.603Z,12.63
2022-10-08T11:10:52.345Z,13.60
2022-10-08T11:13:22.379Z,10.97
2022-10-08T11:16:00.125Z,10.83
2022-10-08T11:18:47.205Z,11.77
2022-10-08T11:21:17.260Z,13.13
2022-10-08T11:23:50.072Z,14.23
2022-10-08T11:26:22.798Z,13.03
2022-10-08T11:28:56.346Z,12.20
2022-10-08T11:31:29.428Z,12.70
2022-10-08T11:33:56.664Z,12.00
2022-10-08T11:36:37.981Z,11.83
2022-10-08T11:39:16.204Z,12.80
2022-10-08T11:42:01.491Z,11.30
2022-10-08T11:44:29.782Z,13.27
2022-10-08T11:47:16.556Z,13.47
2022-10-08T11:49:47.869Z,12.50
2022-10-08T11:52:15.224Z,12.27
2022-10-08T11:54:42.764Z,11.30
2022-10-08T11:57:49.251Z,12.53
2022-10-08T12:00:32.508Z,12.23
2022-10-08T12:03:00.308Z,12.97
2022-10-08T12:05:27.293Z,12.83
2022-10-08T12:07:58.531Z,13.93
2022-10-08T12:10:27.617Z,14.97
2022-10-08T12:12:56.419Z,14.27
2022-10-08T12:15:23.232Z,12.97
2022-10-08T12:18:26.259Z,15.67
2022-10-08T12:21:20.759Z,12.97
2022-10-08T12:23:47.806Z,14.83
2022-10-08T12:26:15.684Z,13.60
2022-10-08T12:28:42.595Z,14.77
2022-10-08T12:31:40.271Z,14.83
2022-10-08T12:34:15.027Z,15.43
2022-10-08T12:36:45.520Z,15.97
2022-10-08T12:39:18.220Z,15.83
2022-10-08T12:41:51.175Z,14.00
2022-10-08T12:44:20.885Z,15.07
2022-10-08T12:46:52.653Z,13.97
2022-10-08T12:49:19.696Z,15.03
2022-10-08T12:51:58.484Z,13.30
2022-10-08T12:54:27.119Z,14.67
2022-10-08T12:56:54.091Z,14.83
2022-10-08T12:59:22.225Z,14.60
2022-10-08T13:01:51.313Z,15.83
2022-10-08T13:04:22.652Z,14.77
2022-10-08T13:06:51.106Z,13.60
2022-10-08T13:09:25.478Z,12.77
2022-10-08T13:11:57.208Z,13.67
2022-10-08T13:14:30.069Z,15.17
2022-10-08T13:16:58.184Z,14.10
2022-10-08T13:19:32.355Z,13.70
2022-10-08T13:22:00.604Z,14.50
2022-10-08T13:24:31.526Z,13.80
2022-10-08T13:26:58.462Z,14.40
2022-10-08T13:29:26.838Z,13.13
2022-10-08T13:31:56.883Z,15.27
2022-10-08T13:34:42.148Z,14.10
2022-10-08T13:37:10.657Z,13.77
2022-10-08T13:39:38.979Z,14.73
2022-10-08T13:42:08.007Z,13.43
2022-10-08T13:44:37.004Z,13.10
2022-10-08T13:47:04.182Z,12.93
2022-10-08T13:49:32.736Z,13.87
2022-10-08T13:52:00.618Z,14.10
2022-10-08T13:54:32.378Z,13.83
2022-10-08T13:56:59.284Z,12.17
2022-10-08T13:59:30.439Z,12.03
2022-10-08T14:01:57.771Z,12.77
2022-10-08T14:04:24.692Z,12.87
2022-10-08T14:06:53.690Z,11.87
2022-10-08T14:09:24.227Z,11.83
2022-10-08T14:11:56.126Z,12.43
2022-10-08T14:14:24.189Z,12.57
2022-10-08T14:16:51.442Z,13.00
2022-10-08T14:19:18.490Z,13.40
2022-10-08T14:21:45.254Z,12.73
2022-10-08T14:24:12.637Z,13.53
2022-10-08T14:26:39.462Z,13.73
2022-10-08T14:29:06.417Z,12.67
2022-10-08T14:31:33.382Z,12.00
2022-10-08T14:34:00.682Z,12.57
2022-10-08T14:36:31.931Z,12.53
2022-10-08T14:38:58.792Z,11.03
2022-10-08T14:41:25.856Z,11.97
2022-10-08T14:43:52.911Z,21.80
2022-10-08T14:46:19.875Z,12.03
2022-10-08T14:48:46.836Z,13.27
2022-10-08T14:51:13.695Z,13.23
2022-10-08T14:53:41.675Z,12.77
2022-10-08T14:56:12.400Z,13.60
2022-10-08T14:58:40.409Z,12.93
2022-10-08T15:01:07.301Z,14.83
2022-10-08T15:03:34.383Z,13.10
2022-10-08T15:06:01.389Z,14.77
2022-10-08T15:08:28.742Z,14.13
2022-10-08T15:10:55.529Z,13.43
2022-10-08T15:13:22.393Z,13.90
2022-10-08T15:15:49.238Z,13.83
2022-10-08T15:18:16.052Z,13.63
2022-10-08T15:20:43.235Z,13.70
2022-10-08T15:23:10.652Z,13.93
2022-10-08T15:25:37.593Z,14.60
2022-10-08T15:28:04.776Z,13.40
2022-10-08T15:30:31.891Z,13.57
2022-10-08T15:33:02.729Z,14.53
2022-10-08T15:35:29.617Z,13.30
2022-10-08T15:37:56.631Z,13.80
2022-10-08T15:40:23.583Z,13.40
2022-10-08T15:42:51.265Z,15.33
2022-10-08T15:45:18.069Z,15.77
2022-10-08T15:47:44.865Z,14.10
2022-10-08T15:50:11.796Z,15.43
2022-10-08T15:52:40.991Z,15.40
2022-10-08T15:55:10.912Z,20.33
2022-10-08T15:57:37.693Z,17.67
2022-10-08T16:00:04.761Z,15.07
2022-10-08T16:02:38.809Z,15.93
2022-10-08T16:05:05.857Z,16.87
2022-10-08T16:07:32.604Z,16.87
2022-10-08T16:09:59.506Z,23.90
2022-10-08T16:12:26.316Z,24.73
2022-10-08T16:14:53.092Z,19.00
2022-10-08T16:17:19.930Z,16.70
2022-10-08T16:19:46.825Z,15.63
2022-10-08T16:22:14.048Z,14.30
2022-10-08T16:24:40.879Z,14.23
2022-10-08T16:27:07.691Z,18.70
2022-10-08T16:29:34.559Z,17.40
2022-10-08T16:32:01.484Z,18.03
2022-10-08T16:34:28.864Z,18.43
2022-10-08T16:36:55.821Z,17.00
2022-10-08T16:39:24.519Z,16.90
2022-10-08T16:41:51.691Z,15.40
2022-10-08T16:44:19.426Z,15.70
2022-10-08T16:46:50.524Z,15.50
2022-10-08T16:49:23.784Z,21.17
2022-10-08T16:51:52.385Z,29.80
2022-10-08T16:54:19.833Z,16.77
2022-10-08T16:56:46.989Z,16.87
2022-10-08T16:59:15.966Z,25.87
2022-10-08T17:01:44.330Z,18.50
2022-10-08T17:04:11.691Z,27.07
2022-10-08T17:06:38.702Z,19.03
2022-10-08T17:09:05.821Z,21.37
2022-10-08T17:11:33.427Z,21.33
2022-10-08T17:14:00.788Z,23.67
2022-10-08T17:16:28.636Z,22.33
2022-10-08T17:18:56.583Z,24.53
2022-10-08T17:21:23.738Z,21.57
2022-10-08T17:23:50.558Z,20.73
2022-10-08T17:26:18.571Z,24.63
2022-10-08T17:28:46.295Z,24.50
2022-10-08T17:31:14.540Z,21.43
2022-10-08T17:33:41.835Z,21.53
2022-10-08T17:36:08.767Z,21.13
2022-10-08T17:38:36.424Z,20.77
2022-10-08T17:41:10.596Z,21.60
2022-10-08T17:43:37.462Z,22.17
2022-10-08T17:46:18.125Z,22.83
2022-10-08T17:48:45.081Z,18.70
2022-10-08T17:51:12.534Z,19.90
2022-10-08T17:53:39.447Z,21.47
2022-10-08T17:56:07.957Z,20.73
2022-10-08T17:58:35.041Z,20.70
2022-10-08T18:01:07.212Z,21.87
2022-10-08T18:03:34.466Z,22.37
2022-10-08T18:06:01.479Z,23.10
2022-10-08T18:08:28.466Z,20.87
2022-10-08T18:10:55.217Z,22.80
2022-10-08T18:13:22.524Z,20.83
2022-10-08T18:15:49.347Z,22.33
2022-10-08T18:18:16.241Z,20.10
2022-10-08T18:20:52.063Z,19.37
2022-10-08T18:23:19.362Z,18.73
2022-10-08T18:25:49.283Z,21.20
2022-10-08T18:28:19.879Z,24.40
2022-10-08T18:30:47.164Z,22.23
2022-10-08T18:33:14.513Z,19.87
2022-10-08T18:35:41.492Z,20.27
2022-10-08T18:38:08.230Z,18.60
2022-10-08T18:40:35.063Z,17.53
2022-10-08T18:43:02.136Z,18.70
2022-10-08T18:45:29.052Z,16.87
2022-10-08T18:47:55.834Z,16.33
2022-10-08T18:50:22.804Z,16.43
2022-10-08T18:52:50.064Z,15.80
2022-10-08T18:55:17.346Z,16.13
2022-10-08T18:57:44.478Z,13.70
2022-10-08T19:00:11.649Z,13.63
2022-10-08T19:02:38.633Z,12.60
2022-10-08T19:05:05.744Z,13.77
2022-10-08T19:07:32.585Z,11.63
2022-10-08T19:09:59.410Z,12.03
2022-10-08T19:12:26.258Z,11.97
2022-10-08T19:14:53.143Z,11.87
2022-10-08T19:17:19.979Z,12.57
2022-10-08T19:19:46.833Z,13.47
2022-10-08T19:22:13.652Z,13.73
2022-10-08T19:24:41.240Z,13.93
2022-10-08T19:27:08.176Z,14.07
2022-10-08T19:29:36.179Z,13.87
2022-10-08T19:32:03.611Z,13.13
2022-10-08T19:34:30.653Z,15.00
2022-10-08T19:36:57.554Z,13.97
2022-10-08T19:39:28.738Z,13.47
2022-10-08T19:41:55.631Z,13.53
2022-10-08T19:44:22.453Z,13.73
2022-10-08T19:46:49.481Z,14.43
2022-10-08T19:49:16.359Z,13.93
2022-10-08T19:51:43.236Z,12.70
2022-10-08T19:54:11.035Z,13.70
2022-10-08T19:56:38.085Z,13.93
2022-10-08T19:59:05.343Z,13.33
2022-10-08T20:01:34.127Z,13.00
2022-10-08T20:04:01.611Z,14.30
2022-10-08T20:06:29.905Z,14.53
2022-10-08T20:08:58.441Z,16.30
2022-10-08T20:11:25.656Z,15.00
2022-10-08T20:13:53.173Z,14.97
2022-10-08T20:16:21.731Z,14.27
2022-10-08T20:18:49.777Z,13.90
2022-10-08T20:21:16.654Z,11.47
2022-10-08T20:23:43.553Z,11.83
2022-10-08T20:26:15.033Z,10.93
2022-10-08T20:28:42.733Z,11.37
2022-10-08T20:31:12.245Z,10.30
2022-10-08T20:33:40.881Z,10.57
2022-10-08T20:36:12.015Z,9.43
2022-10-08T20:38:39.289Z,8.57
2022-10-08T20:41:06.478Z,7.77
2022-10-08T20:43:34.603Z,7.37
2022-10-08T20:46:06.130Z,6.77
2022-10-08T20:48:33.807Z,7.10
2022-10-08T20:51:01.166Z,6.70
2022-10-08T20:53:28.011Z,6.07
2022-10-08T20:55:54.814Z,6.93
2022-10-08T20:58:21.823Z,6.67
2022-10-08T21:00:48.784Z,6.27
2022-10-08T21:03:15.619Z,7.00
2022-10-08T21:05:43.312Z,6.10
2022-10-08T21:08:10.200Z,7.40
2022-10-08T21:10:37.555Z,6.97
2022-10-08T21:13:04.441Z,6.43
2022-10-08T21:15:31.423Z,6.27
2022-10-08T21:17:58.177Z,5.53
2022-10-08T21:20:25.057Z,5.33
2022-10-08T21:22:52.663Z,5.80
2022-10-08T21:25:19.531Z,4.60
2022-10-08T21:27:46.388Z,4.87
2022-10-08T21:30:13.944Z,5.17
2022-10-08T21:32:40.812Z,4.40
2022-10-08T21:35:07.807Z,4.10
2022-10-08T21:37:34.619Z,4.30
2022-10-08T21:40:01.494Z,3.73
2022-10-08T21:42:28.353Z,3.37
2022-10-08T21:44:55.074Z,3.20
2022-10-08T21:47:22.067Z,3.10
2022-10-08T21:49:49.579Z,2.97
2022-10-08T21:52:16.430Z,2.67
2022-10-08T21:54:43.240Z,2.70
2022-10-08T21:57:12.228Z,3.10
2022-10-08T21:59:42.336Z,3.13
2022-10-08T22:02:09.414Z,4.00
2022-10-08T22:04:36.270Z,3.20
2022-10-08T22:07:04.809Z,2.57
2022-10-08T22:09:32.938Z,2.50
2022-10-08T22:12:00.122Z,2.80
2022-10-08T22:14:27.041Z,2.63
2022-10-08T22:16:54.073Z,2.40
2022-10-08T22:19:21.357Z,2.83
2022-10-08T22:21:48.293Z,2.73
2022-10-08T22:24:15.197Z,2.90
2022-10-08T22:26:43.489Z,3.07
2022-10-08T22:29:10.605Z,3.00
2022-10-08T22:31:37.610Z,2.50
2022-10-08T22:34:04.622Z,2.67
2022-10-08T22:36:32.935Z,2.40
2022-10-08T22:38:59.973Z,1.90
2022-10-08T22:41:28.240Z,2.67
2022-10-08T22:43:55.329Z,2.10
2022-10-08T22:46:26.934Z,2.37
2022-10-08T22:48:57.520Z,2.40
2022-10-08T22:51:24.874Z,2.87
2022-10-08T22:53:51.751Z,2.60
2022-10-08T22:56:20.072Z,2.40
2022-10-08T22:58:47.449Z,2.77
2022-10-08T23:01:16.311Z,2.70
2022-10-08T23:03:43.301Z,2.83
2022-10-08T23:06:17.740Z,2.47
2022-10-08T23:08:45.211Z,2.17
2022-10-08T23:11:12.112Z,2.93
2022-10-08T23:13:39.448Z,3.17
2022-10-08T23:16:10.300Z,3.20
2022-10-08T23:18:38.384Z,3.07
2022-10-08T23:21:06.431Z,3.60
2022-10-08T23:23:33.758Z,3.03
2022-10-08T23:26:01.766Z,3.10
2022-10-08T23:28:29.073Z,2.47
2022-10-08T23:31:02.881Z,3.30
2022-10-08T23:33:29.673Z,3.00
2022-10-08T23:35:56.668Z,3.00
2022-10-08T23:38:23.629Z,2.93
2022-10-08T23:40:50.880Z,2.67
2022-10-08T23:43:17.744Z,2.70
2022-10-08T23:45:44.825Z,2.87
2022-10-08T23:48:11.766Z,2.73
2022-10-08T23:50:38.998Z,3.13
2022-10-08T23:53:06.017Z,3.13
2022-10-08T23:55:32.853Z,2.63
2022-10-08T23:57:59.572Z,3.07
